Time;durP1;ratioP1;P1;durP2;ratioP2;P2;SDS_P1;SDS_P2;PMS_P1;PMS_P2;Temp;Humidity;BMP_temperature;BMP_pressure;BME280_temperature;BME280_humidity;BME280_pressure;Samples;Min_cycle;Max_cycle;Signal;HPM_P1;HPM_P2
2021/12/30 00:01:19;;;;;;;43.10;11.17;;;;;;;;;;5052211;28;20228;-69
2021/12/30 00:03:45;;;;;;;43.00;9.77;;;;;;;;;;5058859;28;20256;-68
2021/12/30 00:06:10;;;;;;;47.83;10.90;;;;;;;;;;5050295;28;20221;-71
2021/12/30 00:08:36;;;;;;;51.90;10.47;;;;;;;;;;5057047;28;20177;-68
2021/12/30 00:11:02;;;;;;;44.90;10.93;;;;;;;;;;5055277;28;20235;-69
2021/12/30 00:13:28;;;;;;;44.30;9.60;;;;;;;;;;5055290;28;20455;-68
2021/12/30 00:15:53;;;;;;;53.03;10.53;;;;;;;;;;5044524;28;20187;-71
2021/12/30 00:18:19;;;;;;;39.30;9.03;;;;;;;;;;5066996;28;20263;-69
2021/12/30 00:20:44;;;;;;;41.37;9.23;;;;;;;;;;5067878;28;20200;-68
2021/12/30 00:23:10;;;;;;;45.53;9.90;;;;;;;;;;5060956;28;20802;-69
2021/12/30 00:25:40;;;;;;;40.50;9.23;;;;;;;;;;5061843;28;20233;-69
2021/12/30 00:28:09;;;;;;;50.03;10.13;;;;;;;;;;5058890;28;20241;-69
2021/12/30 00:30:35;;;;;;;43.07;11.20;;;;;;;;;;5046629;28;20201;-69
2021/12/30 00:33:00;;;;;;;46.87;11.03;;;;;;;;;;5070238;28;20176;-71
2021/12/30 00:35:25;;;;;;;46.63;11.17;;;;;;;;;;5077657;28;20172;-72
2021/12/30 00:37:50;;;;;;;42.57;11.30;;;;;;;;;;5062131;28;20598;-69
2021/12/30 00:40:16;;;;;;;64.57;12.93;;;;;;;;;;5060830;28;20196;-69
2021/12/30 00:42:41;;;;;;;54.77;13.23;;;;;;;;;;5077886;28;20289;-68
2021/12/30 00:45:06;;;;;;;56.83;12.33;;;;;;;;;;5079055;28;20199;-71
2021/12/30 00:47:31;;;;;;;67.73;15.37;;;;;;;;;;5076431;28;20301;-69
2021/12/30 00:49:57;;;;;;;73.67;13.43;;;;;;;;;;5077889;28;20280;-68
2021/12/30 00:52:22;;;;;;;55.53;14.00;;;;;;;;;;5080239;28;20228;-69
2021/12/30 00:54:47;;;;;;;56.67;11.37;;;;;;;;;;5072955;28;20203;-68
2021/12/30 00:57:12;;;;;;;59.53;16.43;;;;;;;;;;5082992;28;20185;-72
2021/12/30 00:59:38;;;;;;;50.30;13.00;;;;;;;;;;5079974;28;20320;-68
2021/12/30 01:02:03;;;;;;;48.03;12.00;;;;;;;;;;5089460;28;20273;-69
2021/12/30 01:04:28;;;;;;;42.10;14.20;;;;;;;;;;5079292;28;20204;-69
2021/12/30 01:06:53;;;;;;;44.20;12.20;;;;;;;;;;5076150;28;20183;-71
2021/12/30 01:09:19;;;;;;;55.50;14.23;;;;;;;;;;5077114;28;20192;-71
2021/12/30 01:11:44;;;;;;;42.83;12.27;;;;;;;;;;5072723;28;20719;-68
2021/12/30 01:14:17;;;;;;;47.40;12.23;;;;;;;;;;5064734;28;20181;-69
2021/12/30 01:16:45;;;;;;;45.43;12.87;;;;;;;;;;5090608;28;20176;-71
2021/12/30 01:21:48;;;;;;;50.25;14.15;;;;;;;;;;5086309;28;20269;-69
2021/12/30 01:24:13;;;;;;;51.60;14.53;;;;;;;;;;5083753;28;20185;-71
2021/12/30 01:26:39;;;;;;;44.67;15.40;;;;;;;;;;5082610;28;20243;-71
2021/12/30 01:29:04;;;;;;;42.73;14.23;;;;;;;;;;5078939;28;20437;-71
2021/12/30 01:31:29;;;;;;;41.23;13.10;;;;;;;;;;5077889;28;20188;-71
2021/12/30 01:33:55;;;;;;;43.87;13.27;;;;;;;;;;5070941;28;20537;-71
2021/12/30 01:36:21;;;;;;;40.60;12.65;;;;;;;;;;5082439;28;20219;-70
2021/12/30 01:38:46;;;;;;;44.77;14.60;;;;;;;;;;5064404;28;20180;-70
2021/12/30 01:41:12;;;;;;;41.20;13.07;;;;;;;;;;5062782;28;20325;-71
2021/12/30 01:43:37;;;;;;;37.65;13.50;;;;;;;;;;5075682;28;20175;-71
2021/12/30 01:46:06;;;;;;;38.53;14.00;;;;;;;;;;5076570;28;20185;-71
2021/12/30 01:48:31;;;;;;;42.05;15.70;;;;;;;;;;5075922;28;20222;-70
2021/12/30 01:50:56;;;;;;;38.03;13.88;;;;;;;;;;5098062;28;20192;-70
2021/12/30 01:53:21;;;;;;;37.47;15.33;;;;;;;;;;5089707;28;20909;-71
2021/12/30 01:55:47;;;;;;;33.63;14.63;;;;;;;;;;5076092;28;20176;-71
2021/12/30 01:58:12;;;;;;;42.22;16.15;;;;;;;;;;5081804;28;20511;-70
2021/12/30 02:00:39;;;;;;;45.20;16.20;;;;;;;;;;5074442;28;20324;-71
2021/12/30 02:03:05;;;;;;;37.00;17.67;;;;;;;;;;5072042;28;20173;-71
2021/12/30 02:05:31;;;;;;;38.67;15.40;;;;;;;;;;5070542;28;20207;-70
2021/12/30 02:07:57;;;;;;;37.72;15.90;;;;;;;;;;5076152;28;20200;-70
2021/12/30 02:10:22;;;;;;;35.42;15.88;;;;;;;;;;5056679;28;20202;-71
2021/12/30 02:12:47;;;;;;;37.33;14.82;;;;;;;;;;5073003;28;20185;-70
2021/12/30 02:15:15;;;;;;;32.60;15.70;;;;;;;;;;5075381;28;20203;-70
2021/12/30 02:17:40;;;;;;;35.28;16.15;;;;;;;;;;5080263;28;20193;-71
2021/12/30 02:20:10;;;;;;;29.42;14.13;;;;;;;;;;5083928;28;20192;-71
2021/12/30 02:22:36;;;;;;;26.83;13.57;;;;;;;;;;5070370;28;20239;-70
2021/12/30 02:25:03;;;;;;;32.78;13.75;;;;;;;;;;5077385;28;20208;-71
2021/12/30 02:27:29;;;;;;;31.25;15.05;;;;;;;;;;5078521;28;20264;-71
2021/12/30 02:29:54;;;;;;;26.75;12.38;;;;;;;;;;5080735;28;20275;-70
2021/12/30 02:32:21;;;;;;;29.85;13.02;;;;;;;;;;5060721;28;20185;-71
2021/12/30 02:34:46;;;;;;;25.50;11.38;;;;;;;;;;5080200;28;20177;-70
2021/12/30 02:37:14;;;;;;;22.33;12.20;;;;;;;;;;5079162;28;20192;-70
2021/12/30 02:39:40;;;;;;;20.30;12.38;;;;;;;;;;5067515;28;20287;-70
2021/12/30 02:42:05;;;;;;;24.83;12.02;;;;;;;;;;5069151;28;20349;-70
2021/12/30 02:44:30;;;;;;;23.75;12.00;;;;;;;;;;5069974;28;20222;-70
2021/12/30 02:46:56;;;;;;;21.80;12.10;;;;;;;;;;5073591;28;20190;-71
2021/12/30 02:49:21;;;;;;;24.05;13.20;;;;;;;;;;5071483;28;20258;-70
2021/12/30 02:51:46;;;;;;;19.85;13.15;;;;;;;;;;5073248;28;20230;-70
2021/12/30 02:54:11;;;;;;;22.80;12.85;;;;;;;;;;5077436;28;20206;-70
2021/12/30 02:56:37;;;;;;;20.25;12.02;;;;;;;;;;5081797;28;20187;-70
2021/12/30 02:59:03;;;;;;;20.63;12.10;;;;;;;;;;5082813;28;20281;-70
2021/12/30 03:01:29;;;;;;;24.95;11.43;;;;;;;;;;5077581;28;20283;-70
2021/12/30 03:03:55;;;;;;;17.88;12.68;;;;;;;;;;5070330;28;20271;-70
2021/12/30 03:06:21;;;;;;;20.80;11.15;;;;;;;;;;5060134;28;20184;-71
2021/12/30 03:08:47;;;;;;;19.38;12.15;;;;;;;;;;5075942;28;20265;-70
2021/12/30 03:11:13;;;;;;;22.13;11.45;;;;;;;;;;5071602;28;20189;-70
2021/12/30 03:13:41;;;;;;;21.63;11.10;;;;;;;;;;5081908;28;20564;-69
2021/12/30 03:16:08;;;;;;;21.52;11.40;;;;;;;;;;5073582;28;20535;-70
2021/12/30 03:18:35;;;;;;;19.65;10.48;;;;;;;;;;5078710;28;20180;-69
2021/12/30 03:21:01;;;;;;;17.17;11.15;;;;;;;;;;5070095;28;20211;-68
2021/12/30 03:23:26;;;;;;;14.10;10.15;;;;;;;;;;5080930;28;20177;-69
2021/12/30 03:25:52;;;;;;;15.35;9.18;;;;;;;;;;5074874;28;20522;-69
2021/12/30 03:28:17;;;;;;;14.50;8.93;;;;;;;;;;5072239;28;20173;-69
2021/12/30 03:30:43;;;;;;;14.88;8.82;;;;;;;;;;5076582;28;20528;-69
2021/12/30 03:33:08;;;;;;;13.45;9.00;;;;;;;;;;5073577;28;20180;-69
2021/12/30 03:35:33;;;;;;;14.23;9.82;;;;;;;;;;5052416;28;20644;-70
2021/12/30 03:37:58;;;;;;;18.10;10.82;;;;;;;;;;5064486;28;20219;-69
2021/12/30 03:40:24;;;;;;;18.42;11.88;;;;;;;;;;5074107;28;20216;-70
2021/12/30 03:42:49;;;;;;;25.23;13.65;;;;;;;;;;5078426;28;20576;-69
2021/12/30 03:45:15;;;;;;;24.85;13.02;;;;;;;;;;5075367;28;20177;-71
2021/12/30 03:47:43;;;;;;;20.55;14.02;;;;;;;;;;5070690;28;20181;-68
2021/12/30 03:50:10;;;;;;;24.02;14.02;;;;;;;;;;5069673;28;20647;-68
2021/12/30 03:52:35;;;;;;;20.95;13.82;;;;;;;;;;5080474;28;20533;-67
2021/12/30 03:55:01;;;;;;;21.58;14.35;;;;;;;;;;5074540;28;20187;-68
2021/12/30 03:57:26;;;;;;;20.58;14.50;;;;;;;;;;5075114;28;20188;-71
2021/12/30 03:59:51;;;;;;;25.27;14.25;;;;;;;;;;5076226;28;20265;-71
2021/12/30 04:02:16;;;;;;;20.45;12.88;;;;;;;;;;5079491;28;20560;-71
2021/12/30 04:04:42;;;;;;;17.73;12.75;;;;;;;;;;5078591;28;20172;-68
2021/12/30 04:07:07;;;;;;;17.45;11.07;;;;;;;;;;5080501;28;20621;-71
2021/12/30 04:09:32;;;;;;;19.20;12.75;;;;;;;;;;5061898;28;20199;-67
2021/12/30 04:11:58;;;;;;;18.73;12.27;;;;;;;;;;5070964;28;20264;-67
2021/12/30 04:14:26;;;;;;;18.38;13.15;;;;;;;;;;5072687;28;20191;-68
2021/12/30 04:16:51;;;;;;;18.40;13.63;;;;;;;;;;5078115;28;20185;-69
2021/12/30 04:19:16;;;;;;;17.98;11.02;;;;;;;;;;5076152;28;20707;-69
2021/12/30 04:21:42;;;;;;;17.55;10.35;;;;;;;;;;5074080;28;20208;-70
2021/12/30 04:24:07;;;;;;;16.38;10.55;;;;;;;;;;5075682;28;20183;-69
2021/12/30 04:26:32;;;;;;;13.63;9.40;;;;;;;;;;5076945;28;20172;-70
2021/12/30 04:28:58;;;;;;;15.13;8.90;;;;;;;;;;5049705;28;20181;-69
2021/12/30 04:31:23;;;;;;;16.30;9.50;;;;;;;;;;5055655;28;20480;-69
2021/12/30 04:33:49;;;;;;;14.75;9.00;;;;;;;;;;5060721;28;20209;-69
2021/12/30 04:36:14;;;;;;;17.20;9.48;;;;;;;;;;5074681;28;20558;-71
2021/12/30 04:38:39;;;;;;;15.48;8.85;;;;;;;;;;5081409;28;20172;-71
2021/12/30 04:41:05;;;;;;;17.15;8.85;;;;;;;;;;5077676;28;20205;-70
2021/12/30 04:43:31;;;;;;;13.15;8.18;;;;;;;;;;5079129;28;20191;-68
2021/12/30 04:45:58;;;;;;;14.15;7.60;;;;;;;;;;5074986;28;20702;-69
2021/12/30 04:48:23;;;;;;;11.77;7.45;;;;;;;;;;5082776;28;20188;-69
2021/12/30 04:50:49;;;;;;;15.32;7.38;;;;;;;;;;5070927;28;20575;-69
2021/12/30 04:53:15;;;;;;;18.23;7.75;;;;;;;;;;5079642;28;20599;-69
2021/12/30 04:55:40;;;;;;;19.38;8.70;;;;;;;;;;5077961;28;20177;-69
2021/12/30 04:58:06;;;;;;;18.60;9.30;;;;;;;;;;5081317;28;20284;-69
2021/12/30 05:00:32;;;;;;;18.90;7.72;;;;;;;;;;5075778;28;20871;-69
2021/12/30 05:05:22;;;;;;;19.83;8.95;;;;;;;;;;5081170;28;20185;-69
2021/12/30 05:07:48;;;;;;;14.40;7.43;;;;;;;;;;5081304;28;20168;-69
2021/12/30 05:10:13;;;;;;;15.73;7.97;;;;;;;;;;5083004;28;20609;-69
2021/12/30 05:12:38;;;;;;;15.73;7.57;;;;;;;;;;5081518;28;20211;-68
2021/12/30 05:15:03;;;;;;;15.27;7.22;;;;;;;;;;5075317;28;20177;-68
2021/12/30 05:17:30;;;;;;;21.92;7.22;;;;;;;;;;5077140;28;20188;-69
2021/12/30 05:19:55;;;;;;;20.83;8.15;;;;;;;;;;5081741;28;20954;-68
2021/12/30 05:22:20;;;;;;;15.32;7.53;;;;;;;;;;5086853;28;20300;-68
2021/12/30 05:24:45;;;;;;;12.68;6.93;;;;;;;;;;5080002;28;20169;-68
2021/12/30 05:27:10;;;;;;;16.85;7.22;;;;;;;;;;5076971;28;20191;-69
2021/12/30 05:29:36;;;;;;;17.77;8.05;;;;;;;;;;5086689;28;20648;-68
2021/12/30 05:32:01;;;;;;;17.85;8.45;;;;;;;;;;5077282;28;20314;-69
2021/12/30 05:34:26;;;;;;;20.30;7.93;;;;;;;;;;5079124;28;20250;-68
2021/12/30 05:36:51;;;;;;;16.15;7.75;;;;;;;;;;5073088;28;20177;-69
2021/12/30 05:39:17;;;;;;;15.20;7.35;;;;;;;;;;5076998;28;20208;-68
2021/12/30 05:41:42;;;;;;;22.48;8.15;;;;;;;;;;5054830;28;20292;-69
2021/12/30 05:44:07;;;;;;;15.20;7.78;;;;;;;;;;5061681;28;20274;-68
2021/12/30 05:46:33;;;;;;;16.50;7.65;;;;;;;;;;5071574;28;20185;-68
2021/12/30 05:48:58;;;;;;;13.48;7.40;;;;;;;;;;5078668;28;20180;-68
2021/12/30 05:51:23;;;;;;;13.60;6.78;;;;;;;;;;5078902;28;20184;-68
2021/12/30 05:53:48;;;;;;;13.55;7.05;;;;;;;;;;5079162;28;20553;-69
2021/12/30 05:56:13;;;;;;;15.27;6.50;;;;;;;;;;5073246;28;20556;-68
2021/12/30 05:58:39;;;;;;;9.68;5.93;;;;;;;;;;5078352;28;20184;-71
2021/12/30 06:01:04;;;;;;;11.02;5.97;;;;;;;;;;5065417;28;20717;-68
2021/12/30 06:03:29;;;;;;;14.13;6.80;;;;;;;;;;5077668;28;20211;-67
2021/12/30 06:05:55;;;;;;;10.02;4.28;;;;;;;;;;5067623;28;20205;-70
2021/12/30 06:08:20;;;;;;;11.35;4.80;;;;;;;;;;5080457;28;20390;-71
2021/12/30 06:10:46;;;;;;;6.40;3.20;;;;;;;;;;5071877;28;20192;-70
2021/12/30 06:13:11;;;;;;;5.90;4.17;;;;;;;;;;5075846;28;20242;-69
2021/12/30 06:15:37;;;;;;;8.02;3.60;;;;;;;;;;5075019;28;21085;-70
2021/12/30 06:18:02;;;;;;;8.68;2.75;;;;;;;;;;5058005;28;20188;-69
2021/12/30 06:20:29;;;;;;;9.57;2.90;;;;;;;;;;5088571;28;20199;-70
2021/12/30 06:22:54;;;;;;;7.05;2.97;;;;;;;;;;5080173;28;20207;-70
2021/12/30 06:25:20;;;;;;;4.90;3.28;;;;;;;;;;5073725;28;20260;-70
2021/12/30 06:27:45;;;;;;;5.87;2.43;;;;;;;;;;5076143;28;20660;-70
2021/12/30 06:30:10;;;;;;;6.65;3.25;;;;;;;;;;5075582;28;20221;-70
2021/12/30 06:32:35;;;;;;;5.25;3.00;;;;;;;;;;5073503;28;20693;-70
2021/12/30 06:35:01;;;;;;;8.02;3.00;;;;;;;;;;5064990;28;20232;-69
2021/12/30 06:37:26;;;;;;;7.63;3.05;;;;;;;;;;5071185;28;20684;-70
2021/12/30 06:39:51;;;;;;;6.97;2.90;;;;;;;;;;5076666;28;20204;-70
2021/12/30 06:42:16;;;;;;;7.00;3.40;;;;;;;;;;5076824;28;20205;-69
2021/12/30 06:44:41;;;;;;;6.35;3.05;;;;;;;;;;5062431;28;20818;-70
2021/12/30 06:47:07;;;;;;;5.20;3.30;;;;;;;;;;5059917;28;20192;-69
2021/12/30 06:49:37;;;;;;;9.43;3.67;;;;;;;;;;5071721;28;20601;-70
2021/12/30 06:52:07;;;;;;;7.47;4.07;;;;;;;;;;5079505;28;20181;-70
2021/12/30 06:54:33;;;;;;;10.95;3.67;;;;;;;;;;5063170;28;20189;-70
2021/12/30 06:57:00;;;;;;;5.68;3.20;;;;;;;;;;5073692;28;20181;-70
2021/12/30 06:59:26;;;;;;;5.93;2.42;;;;;;;;;;5072612;28;20209;-69
2021/12/30 07:01:51;;;;;;;7.00;3.13;;;;;;;;;;5070919;28;20215;-70
2021/12/30 07:04:16;;;;;;;5.70;2.42;;;;;;;;;;5074352;28;20176;-70
2021/12/30 07:06:41;;;;;;;4.45;3.08;;;;;;;;;;5064784;28;20177;-68
2021/12/30 07:09:07;;;;;;;6.88;4.15;;;;;;;;;;5073474;28;20271;-69
2021/12/30 07:11:32;;;;;;;6.70;3.53;;;;;;;;;;5074211;28;20184;-69
2021/12/30 07:13:57;;;;;;;6.45;3.42;;;;;;;;;;5071833;28;20265;-70
2021/12/30 07:16:22;;;;;;;9.10;3.72;;;;;;;;;;5075678;28;20194;-70
2021/12/30 07:18:47;;;;;;;12.98;5.07;;;;;;;;;;5071304;28;20181;-70
2021/12/30 07:21:13;;;;;;;8.73;4.85;;;;;;;;;;5071827;28;20204;-70
2021/12/30 07:23:39;;;;;;;12.32;6.88;;;;;;;;;;5075326;28;21740;-70
2021/12/30 07:26:04;;;;;;;16.05;7.97;;;;;;;;;;5075823;28;20172;-69
2021/12/30 07:28:29;;;;;;;17.52;9.80;;;;;;;;;;5078359;28;20181;-70
2021/12/30 07:30:54;;;;;;;15.98;9.88;;;;;;;;;;5067927;28;20196;-69
2021/12/30 07:33:19;;;;;;;18.35;10.90;;;;;;;;;;5061660;28;20242;-70
2021/12/30 07:35:45;;;;;;;24.80;10.88;;;;;;;;;;5072897;28;20172;-69
2021/12/30 07:38:10;;;;;;;14.63;10.50;;;;;;;;;;5073967;28;20650;-69
2021/12/30 07:40:35;;;;;;;18.65;11.27;;;;;;;;;;5055846;28;20188;-69
2021/12/30 07:43:00;;;;;;;18.13;10.00;;;;;;;;;;5051657;28;20220;-70
2021/12/30 07:45:26;;;;;;;14.88;8.90;;;;;;;;;;5074905;28;20670;-71
2021/12/30 07:47:51;;;;;;;19.17;9.90;;;;;;;;;;5072458;28;20176;-69
2021/12/30 07:50:17;;;;;;;10.77;7.90;;;;;;;;;;5073142;28;20197;-70
2021/12/30 07:52:42;;;;;;;15.02;7.10;;;;;;;;;;5071922;28;20248;-68
2021/12/30 07:55:08;;;;;;;16.80;8.77;;;;;;;;;;5054549;28;20496;-69
2021/12/30 07:57:34;;;;;;;14.48;7.05;;;;;;;;;;5074141;28;20175;-69
2021/12/30 07:59:59;;;;;;;13.45;6.97;;;;;;;;;;5074997;28;20204;-69
2021/12/30 08:02:24;;;;;;;20.00;7.03;;;;;;;;;;5056791;28;20295;-69
2021/12/30 08:04:50;;;;;;;13.32;6.72;;;;;;;;;;5070944;28;20184;-69
2021/12/30 08:07:20;;;;;;;19.05;6.60;;;;;;;;;;5074110;28;21371;-69
2021/12/30 08:09:45;;;;;;;19.83;6.68;;;;;;;;;;5056153;28;20211;-69
2021/12/30 08:12:10;;;;;;;16.08;6.35;;;;;;;;;;5068414;28;20649;-69
2021/12/30 08:14:35;;;;;;;23.77;6.13;;;;;;;;;;5067157;28;20227;-70
2021/12/30 08:17:01;;;;;;;19.48;6.18;;;;;;;;;;5071547;28;20228;-70
2021/12/30 08:19:26;;;;;;;18.13;5.95;;;;;;;;;;5065099;28;20712;-71
2021/12/30 08:21:51;;;;;;;16.40;5.38;;;;;;;;;;5071224;28;20220;-71
2021/12/30 08:24:16;;;;;;;23.77;7.90;;;;;;;;;;5071998;28;20238;-71
2021/12/30 08:26:41;;;;;;;16.77;6.15;;;;;;;;;;5072402;28;20180;-70
2021/12/30 08:29:07;;;;;;;21.75;7.07;;;;;;;;;;5075775;28;20236;-70
2021/12/30 08:31:32;;;;;;;14.95;6.15;;;;;;;;;;5078234;28;20185;-70
2021/12/30 08:33:57;;;;;;;16.25;6.03;;;;;;;;;;5072951;28;20222;-70
2021/12/30 08:36:23;;;;;;;27.15;7.40;;;;;;;;;;5075882;28;20187;-71
2021/12/30 08:38:48;;;;;;;25.27;6.53;;;;;;;;;;5077312;28;20188;-71
2021/12/30 08:41:13;;;;;;;18.13;5.57;;;;;;;;;;5075248;28;20224;-70
2021/12/30 08:43:38;;;;;;;23.05;7.28;;;;;;;;;;5075764;28;20707;-70
2021/12/30 08:46:03;;;;;;;20.70;6.47;;;;;;;;;;5079192;28;20196;-70
2021/12/30 08:48:29;;;;;;;20.20;6.88;;;;;;;;;;5073574;28;20169;-69
2021/12/30 08:50:56;;;;;;;19.77;7.32;;;;;;;;;;5079174;28;20192;-70
2021/12/30 08:53:25;;;;;;;25.73;8.20;;;;;;;;;;5078115;28;20177;-70
2021/12/30 08:55:50;;;;;;;17.20;6.82;;;;;;;;;;5074537;28;20177;-70
2021/12/30 08:58:15;;;;;;;25.65;6.95;;;;;;;;;;5078100;28;20206;-70
2021/12/30 09:00:42;;;;;;;25.25;7.82;;;;;;;;;;5073662;28;20208;-70
2021/12/30 09:03:08;;;;;;;18.65;6.55;;;;;;;;;;5055782;28;20229;-71
2021/12/30 09:05:34;;;;;;;20.95;6.75;;;;;;;;;;5075728;28;20278;-70
2021/12/30 09:07:59;;;;;;;22.63;7.78;;;;;;;;;;5076639;28;20187;-70
2021/12/30 09:10:25;;;;;;;24.48;6.88;;;;;;;;;;5077101;28;20238;-70
2021/12/30 09:12:51;;;;;;;15.00;5.65;;;;;;;;;;5073690;28;20257;-71
2021/12/30 09:15:17;;;;;;;20.65;6.30;;;;;;;;;;5075623;28;20268;-71
2021/12/30 09:17:44;;;;;;;14.45;5.57;;;;;;;;;;5066510;28;20176;-69
2021/12/30 09:20:09;;;;;;;17.75;6.15;;;;;;;;;;5076706;28;20548;-70
2021/12/30 09:22:35;;;;;;;13.20;5.50;;;;;;;;;;5079639;28;20222;-70
2021/12/30 09:25:00;;;;;;;23.77;5.47;;;;;;;;;;5079142;28;20180;-71
2021/12/30 09:27:25;;;;;;;19.42;5.38;;;;;;;;;;5057470;28;20180;-70
2021/12/30 09:29:51;;;;;;;14.90;4.95;;;;;;;;;;5076121;28;20207;-71
2021/12/30 09:32:16;;;;;;;18.00;5.20;;;;;;;;;;5076898;28;20255;-70
2021/12/30 09:34:41;;;;;;;14.30;5.60;;;;;;;;;;5075596;28;20533;-69
2021/12/30 09:37:09;;;;;;;14.80;5.00;;;;;;;;;;5075764;28;20240;-70
2021/12/30 09:39:36;;;;;;;18.42;4.50;;;;;;;;;;5054055;28;20204;-69
2021/12/30 09:42:01;;;;;;;12.75;4.47;;;;;;;;;;5077810;28;20249;-69
2021/12/30 09:44:27;;;;;;;12.13;3.85;;;;;;;;;;5087381;28;20180;-70
2021/12/30 09:46:52;;;;;;;17.60;5.05;;;;;;;;;;5065224;28;20172;-70
2021/12/30 09:49:18;;;;;;;9.00;4.25;;;;;;;;;;5070726;28;20208;-69
2021/12/30 09:51:43;;;;;;;18.23;4.60;;;;;;;;;;5074783;28;20202;-70
2021/12/30 09:54:09;;;;;;;12.60;4.22;;;;;;;;;;5085452;28;20251;-69
2021/12/30 09:56:34;;;;;;;15.73;4.53;;;;;;;;;;5080512;28;20264;-69
2021/12/30 09:58:59;;;;;;;9.65;4.10;;;;;;;;;;5077252;28;20626;-70
2021/12/30 10:01:24;;;;;;;9.80;4.10;;;;;;;;;;5078115;28;20696;-69
2021/12/30 10:03:54;;;;;;;15.10;5.15;;;;;;;;;;5069156;28;20180;-68
2021/12/30 10:06:19;;;;;;;21.60;5.45;;;;;;;;;;5060126;28;20173;-69
2021/12/30 10:08:53;;;;;;;13.15;3.90;;;;;;;;;;5077845;28;20180;-68
2021/12/30 10:11:19;;;;;;;14.18;4.07;;;;;;;;;;5077762;28;20667;-70
2021/12/30 10:13:56;;;;;;;17.83;4.45;;;;;;;;;;5074448;28;20180;-69
2021/12/30 10:16:21;;;;;;;15.70;5.03;;;;;;;;;;5081178;28;20480;-69
2021/12/30 10:19:07;;;;;;;16.60;5.82;;;;;;;;;;5063647;28;20200;-69
2021/12/30 10:21:36;;;;;;;15.95;3.97;;;;;;;;;;5080071;28;20221;-69
2021/12/30 10:24:06;;;;;;;13.25;4.03;;;;;;;;;;5082518;28;20238;-69
2021/12/30 10:26:46;;;;;;;14.02;4.70;;;;;;;;;;5071488;28;20177;-69
2021/12/30 10:29:11;;;;;;;16.92;4.45;;;;;;;;;;5078751;28;20273;-68
2021/12/30 10:31:39;;;;;;;13.05;3.75;;;;;;;;;;5073050;28;20795;-68
2021/12/30 10:34:05;;;;;;;14.02;3.80;;;;;;;;;;5072218;28;20664;-69
2021/12/30 10:36:32;;;;;;;16.38;5.40;;;;;;;;;;5073698;28;20196;-68
2021/12/30 10:39:15;;;;;;;14.80;4.43;;;;;;;;;;5076614;28;20180;-70
2021/12/30 10:41:40;;;;;;;10.65;4.57;;;;;;;;;;5057350;28;20195;-71
2021/12/30 10:44:06;;;;;;;12.63;4.33;;;;;;;;;;5073551;28;20181;-71
2021/12/30 10:46:31;;;;;;;13.48;5.53;;;;;;;;;;5075202;28;20846;-69
2021/12/30 10:49:04;;;;;;;12.25;5.03;;;;;;;;;;5067818;28;20233;-69
2021/12/30 10:51:33;;;;;;;15.18;5.18;;;;;;;;;;5079084;28;20750;-69
2021/12/30 10:53:58;;;;;;;11.05;4.22;;;;;;;;;;5072995;28;20188;-69
2021/12/30 10:56:26;;;;;;;16.35;5.00;;;;;;;;;;5073786;28;20188;-69
2021/12/30 10:58:53;;;;;;;12.30;4.55;;;;;;;;;;5086045;28;20710;-70
2021/12/30 11:01:19;;;;;;;8.55;3.70;;;;;;;;;;5059794;28;20207;-69
2021/12/30 11:03:58;;;;;;;12.15;4.63;;;;;;;;;;5073173;28;20252;-69
2021/12/30 11:06:23;;;;;;;10.52;4.93;;;;;;;;;;5076180;28;20181;-69
2021/12/30 11:09:04;;;;;;;12.60;4.68;;;;;;;;;;5072477;28;20550;-68
2021/12/30 11:11:29;;;;;;;16.20;5.30;;;;;;;;;;5073774;28;20948;-70
2021/12/30 11:13:59;;;;;;;8.93;4.35;;;;;;;;;;5074646;28;20302;-69
2021/12/30 11:16:25;;;;;;;10.45;4.78;;;;;;;;;;5073449;28;20202;-69
2021/12/30 11:18:50;;;;;;;11.73;5.00;;;;;;;;;;5073914;28;20181;-69
2021/12/30 11:21:34;;;;;;;12.90;4.93;;;;;;;;;;5071040;28;20181;-67
2021/12/30 11:23:59;;;;;;;6.50;3.78;;;;;;;;;;5070218;28;20189;-69
2021/12/30 11:26:24;;;;;;;8.85;4.75;;;;;;;;;;5053931;28;20229;-70
2021/12/30 11:28:50;;;;;;;13.98;4.97;;;;;;;;;;5079890;28;20191;-69
2021/12/30 11:31:15;;;;;;;11.30;4.07;;;;;;;;;;5073401;28;20261;-69
2021/12/30 11:33:40;;;;;;;10.68;4.68;;;;;;;;;;5070809;28;20173;-69
2021/12/30 11:36:05;;;;;;;9.57;4.53;;;;;;;;;;5068613;28;20609;-69
2021/12/30 11:38:30;;;;;;;15.80;4.93;;;;;;;;;;5075086;28;20618;-70
2021/12/30 11:40:56;;;;;;;13.07;6.18;;;;;;;;;;5086927;28;20204;-69
2021/12/30 11:43:21;;;;;;;17.60;5.68;;;;;;;;;;5051355;28;20368;-68
2021/12/30 11:45:46;;;;;;;10.75;4.93;;;;;;;;;;5075894;28;20250;-68
2021/12/30 11:48:21;;;;;;;12.02;5.88;;;;;;;;;;5076965;28;20191;-69
2021/12/30 11:50:46;;;;;;;15.77;5.35;;;;;;;;;;5069010;28;20212;-69
2021/12/30 11:53:12;;;;;;;14.85;6.10;;;;;;;;;;5074785;28;20181;-69
2021/12/30 11:55:49;;;;;;;11.45;5.28;;;;;;;;;;5070033;28;20554;-68
2021/12/30 11:58:32;;;;;;;10.25;4.70;;;;;;;;;;5072858;28;20241;-68
2021/12/30 12:01:03;;;;;;;13.73;5.10;;;;;;;;;;5071493;28;20680;-71
2021/12/30 12:03:31;;;;;;;14.18;4.82;;;;;;;;;;5071367;28;20293;-69
2021/12/30 12:05:57;;;;;;;15.73;5.63;;;;;;;;;;5071747;28;20183;-69
2021/12/30 12:08:26;;;;;;;14.65;6.18;;;;;;;;;;5073333;28;20234;-70
2021/12/30 12:11:09;;;;;;;9.18;4.78;;;;;;;;;;5067182;28;20694;-70
2021/12/30 12:13:35;;;;;;;11.25;5.68;;;;;;;;;;5055728;28;20292;-69
2021/12/30 12:16:02;;;;;;;8.95;4.50;;;;;;;;;;5067518;28;20695;-69
2021/12/30 12:18:29;;;;;;;11.00;4.55;;;;;;;;;;5071086;28;20180;-69
2021/12/30 12:20:56;;;;;;;9.65;4.47;;;;;;;;;;5059738;28;20211;-68
2021/12/30 12:23:31;;;;;;;11.05;3.78;;;;;;;;;;5084457;28;20215;-69
2021/12/30 12:26:18;;;;;;;7.72;4.20;;;;;;;;;;5069331;28;20199;-69
2021/12/30 12:28:43;;;;;;;10.52;4.05;;;;;;;;;;5053709;28;20165;-69
2021/12/30 12:31:09;;;;;;;9.73;4.30;;;;;;;;;;5056858;28;20271;-68
2021/12/30 12:33:35;;;;;;;9.75;4.35;;;;;;;;;;5035157;28;20585;-68
2021/12/30 12:36:14;;;;;;;12.85;5.70;;;;;;;;;;5052215;28;20180;-68
2021/12/30 12:38:43;;;;;;;15.10;5.93;;;;;;;;;;5054026;28;20185;-69
2021/12/30 12:41:36;;;;;;;11.48;5.63;;;;;;;;;;5054612;28;20191;-68
2021/12/30 12:44:03;;;;;;;10.73;4.55;;;;;;;;;;5052149;28;20665;-68
2021/12/30 12:46:39;;;;;;;11.90;5.38;;;;;;;;;;5047723;28;20184;-69
2021/12/30 12:49:06;;;;;;;12.10;5.68;;;;;;;;;;5056924;28;20920;-68
2021/12/30 12:51:32;;;;;;;11.45;5.13;;;;;;;;;;5053430;28;20625;-69
2021/12/30 12:54:02;;;;;;;13.88;5.95;;;;;;;;;;5052622;28;20176;-67
2021/12/30 12:56:27;;;;;;;11.43;5.05;;;;;;;;;;5052330;28;20785;-70
2021/12/30 12:58:53;;;;;;;12.13;5.10;;;;;;;;;;5053095;28;20710;-69
2021/12/30 13:01:21;;;;;;;13.57;5.32;;;;;;;;;;5053908;28;20273;-69
2021/12/30 13:03:47;;;;;;;10.93;5.43;;;;;;;;;;5055305;28;20281;-69
2021/12/30 13:06:13;;;;;;;10.50;4.15;;;;;;;;;;5054711;28;20180;-69
2021/12/30 13:08:39;;;;;;;9.52;4.13;;;;;;;;;;5051347;28;20168;-69
2021/12/30 13:11:05;;;;;;;14.20;4.32;;;;;;;;;;5051472;28;20230;-68
2021/12/30 13:13:31;;;;;;;8.27;3.45;;;;;;;;;;5058669;28;20188;-70
2021/12/30 13:15:57;;;;;;;9.13;4.38;;;;;;;;;;5077659;28;20185;-68
2021/12/30 13:18:23;;;;;;;14.40;4.68;;;;;;;;;;5063959;28;20172;-68
2021/12/30 13:20:48;;;;;;;11.15;3.90;;;;;;;;;;5053190;28;20201;-69
2021/12/30 13:23:30;;;;;;;9.30;4.00;;;;;;;;;;5057060;28;20216;-69
2021/12/30 13:25:58;;;;;;;11.80;3.38;;;;;;;;;;5048203;28;20182;-69
2021/12/30 13:28:23;;;;;;;7.88;3.70;;;;;;;;;;5059849;28;20633;-68
2021/12/30 13:30:49;;;;;;;7.97;3.47;;;;;;;;;;5058340;28;20204;-68
2021/12/30 13:33:15;;;;;;;8.73;3.00;;;;;;;;;;5063176;28;20920;-68
2021/12/30 13:35:40;;;;;;;10.65;4.43;;;;;;;;;;5054143;28;20219;-68
2021/12/30 13:38:07;;;;;;;14.82;4.55;;;;;;;;;;5056510;28;20261;-68
2021/12/30 13:40:34;;;;;;;14.50;4.00;;;;;;;;;;5057530;28;20205;-67
2021/12/30 13:43:02;;;;;;;14.40;3.72;;;;;;;;;;5058018;28;20208;-68
2021/12/30 13:45:29;;;;;;;14.60;4.28;;;;;;;;;;5054307;28;20177;-68
2021/12/30 13:48:02;;;;;;;9.40;3.97;;;;;;;;;;5057787;28;20186;-69
2021/12/30 13:50:27;;;;;;;12.30;4.20;;;;;;;;;;5048746;28;20256;-69
2021/12/30 13:52:52;;;;;;;13.25;4.10;;;;;;;;;;5057095;28;20180;-68
2021/12/30 13:55:22;;;;;;;8.80;3.88;;;;;;;;;;5057523;28;20188;-69
2021/12/30 13:57:57;;;;;;;10.15;4.30;;;;;;;;;;5052350;28;20400;-68
2021/12/30 14:00:22;;;;;;;11.88;5.07;;;;;;;;;;5056471;28;20219;-69
2021/12/30 14:02:58;;;;;;;11.80;4.50;;;;;;;;;;5056879;28;20213;-69
2021/12/30 14:05:23;;;;;;;10.63;4.10;;;;;;;;;;5058046;28;20184;-68
2021/12/30 14:07:49;;;;;;;7.57;4.13;;;;;;;;;;5057492;28;20185;-69
2021/12/30 14:10:15;;;;;;;9.18;3.58;;;;;;;;;;5055769;28;20335;-69
2021/12/30 14:13:00;;;;;;;10.27;4.22;;;;;;;;;;5056911;28;20186;-69
2021/12/30 14:15:30;;;;;;;8.35;4.20;;;;;;;;;;5056643;28;20204;-69
2021/12/30 14:18:09;;;;;;;13.13;3.97;;;;;;;;;;5058812;28;20189;-68
2021/12/30 14:20:35;;;;;;;7.22;3.78;;;;;;;;;;5056316;28;20204;-69
2021/12/30 14:23:00;;;;;;;10.10;4.22;;;;;;;;;;5056575;28;20204;-68
2021/12/30 14:25:25;;;;;;;9.70;4.82;;;;;;;;;;5053599;28;20254;-69
2021/12/30 14:27:50;;;;;;;6.80;4.32;;;;;;;;;;5055962;28;20173;-68
2021/12/30 14:30:16;;;;;;;7.03;3.92;;;;;;;;;;5056188;28;20631;-68